Абагур-Лесной

Карта отелей и гостиниц, располагающихся рядом с аэропортом Абагур-Лесной :

Абагур-Лесной
Новокузнецк
Кемеровская область 53° 44' 20.76" N, 87° 12' 20.34" E
Абагур-Лесной
Новокузнецк
Кемеровская область 53° 44' 20.76" N, 87° 12' 20.34" E
Код аэродрома ИКАО
ZE1R
Код аэродрома RU
ЗЕ1Р
Координаты
N53.73910° E087.20565°
Превышение над уровнем моря
195
Основная полоса
08/26
Курс магнитный
080,3/260,3
Длина основной ВПП
949
Ширина основной ВПП
40
Покрытие основной ВПП
Нетвёрдое (грунт)
Освещение ВПП
Нет
Тип: 
Аэродром
Класс аэродрома: 
Принадлежность: 
АОН
Статус: 
Действующий
Сайт: 
E-mail аэродрома: 
Страна: 
Россия
Регион: 
Кемеровская область
Город: 
Новокузнецк
Дополнительная информация: 
Оператор: местный аэроклуб ДОСААФ России.

Найти трансфер

С помощью этой формы Вы можете найти трансфер из аэропорта Абагур-Лесной в город, аэропорт или вокзал:

Карта места

Javascript is required to view this map.

Погода в аэропортах:

Авиационная погода в аэропорту Байкал

Регион: 
Погода METAR: 
UIUU 241700Z 00000MPS 4600 FU FEW043 M03/M04 Q1019 R26/CLRD60 NOSIG RMK QFE720/0960
Время наблюдения
2021-10-24T17:00:00Z
Температура C
-3.0
Точка росы
-4.0
Направление ветра
0
Скорость ветра (узлы)
0
Метео видимость
2.86
Явления погоды
FU
Условия полета
IFR
Аэропорт подробнее: 

Авиационная погода в Москва - Внуково

Погода METAR: 
UUWW 241700Z 33006MPS 9000 -SHSN BKN031CB 01/M04 Q1022 RMK WS R24 R24/290050 TEMPO 1500 SHSN BKN012CB
Время наблюдения
2021-10-24T17:00:00Z
Температура C
1.0
Точка росы
-4.0
Направление ветра
330
Скорость ветра (узлы)
12
Метео видимость
5.59
Явления погоды
-SHSN
Условия полета
VFR
Аэропорт подробнее: 

Авиационная погода в Мирном

Регион: 
Погода METAR: 
UERR 241700Z 21003MPS 9999 -SHSN FEW009 OVC020CB M00/M01 Q0997 R25/591032 NOSIG RMK QFE717/0956
Время наблюдения
2021-10-24T17:00:00Z
Температура C
0.0
Точка росы
-1.0
Направление ветра
210
Скорость ветра (узлы)
6
Метео видимость
6.21
Явления погоды
-SHSN
Условия полета
MVFR
Аэропорт подробнее: 

Авиационная погода в аэропорту Алыкель

Регион: 
Погода METAR: 
UOOO 241700Z 06003MPS 3100 -SN SCT012 M03/M03 Q0987 R01/491048 NOSIG RMK QFE726/0968
Время наблюдения
2021-10-24T17:00:00Z
Температура C
-3.0
Точка росы
-3.0
Направление ветра
60
Скорость ветра (узлы)
6
Метео видимость
1.93
Явления погоды
-SN
Условия полета
IFR
Аэропорт подробнее: